^^
Station Historical Data
 
Daily Summary for September 24, 2017 Units:  English    Metric   Both
« Previous Day
Next Day »
Daily Weekly Monthly Yearly Custom
  Current: High: Low: Average:
Temperature: 81.7 °F 81.7 °F 60.7 °F 66.4 °F
Dew Point: 66.9 °F 67.8 °F 58.1 °F 61.1 °F
Humidity: 61 % 91 % 61 % 84 %
Wind Speed: 1.8 mph 2.4 mph 0.0 mph 0.1 mph
Wind Gust: 5.8 mph 5.8 mph - -
Wind:NNE - - ENE
Pressure: 30.09 in 30.11 in 30.06 in -
Precipitation: 0.00 in      
Historical Graphs
 
 
Tabular Data for September 24, 2017
Time Temperature Dew Point Pressure Wind Wind Speed Wind Gust Humidity Rainfall Rate (Hourly) solar Conditions
00:03 66.5 °F 61.2 °F 30.07 in Calm     83 % 0.00 in 0.0 W/m2 CLR
00:08 66.6 °F 61.3 °F 30.07 in Calm     83 % 0.00 in 0.0 W/m2 CLR
00:13 66.5 °F 61.2 °F 30.07 in Calm     83 % 0.00 in 0.0 W/m2 CLR
00:18 66.2 °F 60.9 °F 30.07 in Calm     83 % 0.00 in 0.0 W/m2 CLR
00:23 66.1 °F 61.1 °F 30.08 in Calm     84 % 0.00 in 0.0 W/m2 CLR
00:28 65.8 °F 60.8 °F 30.07 in Calm     84 % 0.00 in 0.0 W/m2 CLR
00:33 65.5 °F 60.9 °F 30.07 in Calm     85 % 0.00 in 0.0 W/m2 CLR
00:38 65.4 °F 60.8 °F 30.07 in Calm     85 % 0.00 in 0.0 W/m2 CLR
00:43 65.5 °F 60.9 °F 30.07 in Calm     85 % 0.00 in 0.0 W/m2 CLR
00:48 65.6 °F 61.0 °F 30.07 in Calm     85 % 0.00 in 0.0 W/m2 CLR
00:53 65.5 °F 60.9 °F 30.07 in Calm     85 % 0.00 in 0.0 W/m2 CLR
00:58 65.3 °F 60.7 °F 30.07 in Calm     85 % 0.00 in 0.0 W/m2 CLR
01:03 65.3 °F 60.7 °F 30.07 in Calm     85 % 0.00 in 0.0 W/m2 CLR
01:08 65.2 °F 60.6 °F 30.07 in Calm     85 % 0.00 in 0.0 W/m2 CLR
01:13 64.9 °F 60.3 °F 30.07 in Calm     85 % 0.00 in 0.0 W/m2 CLR
01:18 64.7 °F 60.4 °F 30.07 in Calm     86 % 0.00 in 0.0 W/m2 CLR
01:23 64.7 °F 60.4 °F 30.07 in Calm     86 % 0.00 in 0.0 W/m2 CLR
01:28 64.7 °F 60.4 °F 30.07 in Calm     86 % 0.00 in 0.0 W/m2 CLR
01:33 64.6 °F 60.3 °F 30.07 in Calm     86 % 0.00 in 0.0 W/m2 CLR
01:38 64.4 °F 60.4 °F 30.07 in Calm     87 % 0.00 in 0.0 W/m2 CLR
01:43 64.5 °F 60.2 °F 30.07 in Calm     86 % 0.00 in 0.0 W/m2 CLR
01:48 64.3 °F 60.3 °F 30.07 in Calm     87 % 0.00 in 0.0 W/m2 CLR
01:53 64.1 °F 60.2 °F 30.07 in Calm     87 % 0.00 in 0.0 W/m2 CLR
01:58 63.9 °F 60.0 °F 30.07 in Calm     87 % 0.00 in 0.0 W/m2 CLR
02:03 63.9 °F 60.0 °F 30.06 in Calm     87 % 0.00 in 0.0 W/m2 CLR
02:05 63.9 °F 60.0 °F 30.06 in Calm     87 % 0.00 in 0.0 W/m2 CLR
02:10 63.9 °F 60.0 °F 30.06 in Calm     87 % 0.00 in 0.0 W/m2 CLR
02:15 63.7 °F 59.8 °F 30.06 in Calm     87 % 0.00 in 0.0 W/m2 CLR
02:20 63.7 °F 60.1 °F 30.07 in Calm     88 % 0.00 in 0.0 W/m2 CLR
02:25 63.7 °F 60.1 °F 30.07 in Calm     88 % 0.00 in 0.0 W/m2 CLR
02:30 63.7 °F 60.1 °F 30.06 in Calm     88 % 0.00 in 0.0 W/m2 CLR
02:35 63.7 °F 60.1 °F 30.07 in Calm     88 % 0.00 in 0.0 W/m2 CLR
02:40 63.7 °F 60.1 °F 30.07 in Calm     88 % 0.00 in 0.0 W/m2 CLR
02:45 63.5 °F 59.9 °F 30.07 in Calm     88 % 0.00 in 0.0 W/m2 CLR
02:50 63.4 °F 59.8 °F 30.07 in Calm     88 % 0.00 in 0.0 W/m2 CLR
02:55 63.2 °F 59.6 °F 30.07 in Calm     88 % 0.00 in 0.0 W/m2 CLR
03:00 63.4 °F 59.8 °F 30.07 in Calm     88 % 0.00 in 0.0 W/m2 CLR
03:05 63.3 °F 59.7 °F 30.07 in Calm     88 % 0.00 in 0.0 W/m2 CLR
03:10 63.1 °F 59.5 °F 30.07 in Calm     88 % 0.00 in 0.0 W/m2 CLR
03:15 63.1 °F 59.8 °F 30.07 in Calm     89 % 0.00 in 0.0 W/m2 CLR
03:20 63.0 °F 59.4 °F 30.07 in Calm     88 % 0.00 in 0.0 W/m2 CLR
03:25 62.9 °F 59.6 °F 30.07 in Calm     89 % 0.00 in 0.0 W/m2 CLR
03:30 62.9 °F 59.6 °F 30.07 in Calm     89 % 0.00 in 0.0 W/m2 CLR
03:35 63.0 °F 59.7 °F 30.07 in Calm     89 % 0.00 in 0.0 W/m2 CLR
03:40 62.8 °F 59.5 °F 30.07 in Calm     89 % 0.00 in 0.0 W/m2 CLR
03:45 62.7 °F 59.4 °F 30.07 in Calm     89 % 0.00 in 0.0 W/m2 CLR
03:50 62.6 °F 59.3 °F 30.07 in Calm     89 % 0.00 in 0.0 W/m2 CLR
03:55 62.6 °F 59.3 °F 30.07 in Calm     89 % 0.00 in 0.0 W/m2 CLR
04:00 62.6 °F 59.3 °F 30.07 in Calm     89 % 0.00 in 0.0 W/m2 CLR
04:05 62.4 °F 59.1 °F 30.07 in Calm     89 % 0.00 in 0.0 W/m2 CLR
04:10 62.3 °F 59.0 °F 30.08 in Calm     89 % 0.00 in 0.0 W/m2 CLR
04:15 62.2 °F 58.9 °F 30.08 in Calm     89 % 0.00 in 0.0 W/m2 CLR
04:20 62.3 °F 59.3 °F 30.08 in Calm     90 % 0.00 in 0.0 W/m2 CLR
04:25 62.3 °F 59.3 °F 30.08 in Calm     90 % 0.00 in 0.0 W/m2 CLR
04:30 62.2 °F 59.2 °F 30.07 in Calm     90 % 0.00 in 0.0 W/m2 CLR
04:35 62.1 °F 59.1 °F 30.07 in Calm     90 % 0.00 in 0.0 W/m2 CLR
04:40 62.1 °F 59.1 °F 30.07 in Calm     90 % 0.00 in 0.0 W/m2 CLR
04:45 62.2 °F 59.2 °F 30.08 in Calm     90 % 0.00 in 0.0 W/m2 CLR
04:50 62.1 °F 59.1 °F 30.08 in Calm     90 % 0.00 in 0.0 W/m2 CLR
04:55 62.1 °F 59.1 °F 30.07 in Calm     90 % 0.00 in 0.0 W/m2 CLR
04:56 62.1 °F 59.1 °F 30.07 in Calm     90 % 0.00 in 0.0 W/m2 CLR
05:06 62.0 °F 59.0 °F 30.08 in Calm     90 % 0.00 in 0.0 W/m2 CLR
05:11 62.2 °F 59.2 °F 30.08 in Calm     90 % 0.00 in 0.0 W/m2 CLR
05:16 62.1 °F 59.1 °F 30.08 in Calm     90 % 0.00 in 0.0 W/m2 CLR
05:21 62.0 °F 59.0 °F 30.08 in Calm     90 % 0.00 in 0.0 W/m2 CLR
05:26 61.8 °F 58.8 °F 30.08 in Calm     90 % 0.00 in 0.0 W/m2 CLR
05:31 61.8 °F 58.8 °F 30.08 in Calm     90 % 0.00 in 0.0 W/m2 CLR
05:36 61.7 °F 58.7 °F 30.08 in Calm     90 % 0.00 in 0.0 W/m2 CLR
05:41 61.6 °F 58.6 °F 30.08 in Calm     90 % 0.00 in 0.0 W/m2 CLR
05:46 61.5 °F 58.5 °F 30.09 in Calm     90 % 0.00 in 0.0 W/m2 CLR
05:56 61.3 °F 58.3 °F 30.09 in Calm     90 % 0.00 in 0.0 W/m2 CLR
06:01 61.2 °F 58.2 °F 30.09 in Calm     90 % 0.00 in 0.0 W/m2 CLR
06:06 61.2 °F 58.2 °F 30.09 in Calm     90 % 0.00 in 0.0 W/m2 CLR
06:17 61.3 °F 58.3 °F 30.09 in Calm     90 % 0.00 in 0.0 W/m2 CLR
06:22 61.2 °F 58.2 °F 30.09 in Calm     90 % 0.00 in 0.0 W/m2 CLR
06:27 61.1 °F 58.1 °F 30.09 in Calm     90 % 0.00 in 0.0 W/m2 CLR
06:32 61.0 °F 58.4 °F 30.09 in Calm     91 % 0.00 in 0.0 W/m2 CLR
06:37 61.0 °F 58.4 °F 30.10 in Calm     91 % 0.00 in 0.0 W/m2 CLR
06:42 60.9 °F 58.3 °F 30.10 in Calm     91 % 0.00 in 0.0 W/m2 CLR
06:47 60.9 °F 58.3 °F 30.10 in Calm     91 % 0.00 in 0.0 W/m2 CLR
06:52 60.8 °F 58.2 °F 30.10 in Calm     91 % 0.00 in 0.0 W/m2 CLR
06:57 60.8 °F 58.2 °F 30.10 in Calm     91 % 0.00 in 5.0 W/m2 CLR
07:02 60.7 °F 58.1 °F 30.11 in Calm     91 % 0.00 in 7.0 W/m2 CLR
07:07 60.8 °F 58.2 °F 30.11 in Calm     91 % 0.00 in 9.0 W/m2 CLR
07:12 60.9 °F 58.3 °F 30.11 in Calm     91 % 0.00 in 11.0 W/m2 CLR
07:17 61.0 °F 58.4 °F 30.11 in Calm     91 % 0.00 in 12.0 W/m2 CLR
07:22 61.0 °F 58.4 °F 30.11 in Calm     91 % 0.00 in 14.0 W/m2 CLR
07:27 61.1 °F 58.5 °F 30.11 in Calm     91 % 0.00 in 16.0 W/m2 CLR
07:32 61.2 °F 58.6 °F 30.11 in Calm     91 % 0.00 in 19.0 W/m2 CLR
07:37 61.3 °F 58.7 °F 30.11 in Calm     91 % 0.00 in 19.0 W/m2 CLR
07:42 61.6 °F 58.6 °F 30.11 in Calm     90 % 0.00 in 21.0 W/m2 CLR
07:47 61.9 °F 58.9 °F 30.11 in Calm     90 % 0.00 in 26.0 W/m2 CLR
07:52 62.3 °F 59.3 °F 30.11 in Calm     90 % 0.00 in 25.0 W/m2 CLR
07:57 62.7 °F 59.7 °F 30.11 in Calm     90 % 0.00 in 23.0 W/m2 CLR
08:02 63.4 °F 60.4 °F 30.11 in Calm     90 % 0.00 in 25.0 W/m2 CLR
08:07 64.0 °F 60.7 °F 30.11 in Calm     89 % 0.00 in 26.0 W/m2 CLR
08:12 64.5 °F 60.9 °F 30.11 in Calm     88 % 0.00 in 26.0 W/m2 CLR
08:17 65.0 °F 61.0 °F 30.11 in Calm     87 % 0.00 in 23.0 W/m2 CLR
08:23 65.4 °F 61.4 °F 30.10 in Calm     87 % 0.00 in 28.0 W/m2 CLR
08:28 65.8 °F 61.5 °F 30.11 in Calm     86 % 0.00 in 30.0 W/m2 CLR
08:33 66.3 °F 62.0 °F 30.10 in Calm     86 % 0.00 in 32.0 W/m2 CLR
08:38 66.8 °F 62.1 °F 30.11 in Calm     85 % 0.00 in 33.0 W/m2 CLR
08:43 67.3 °F 62.3 °F 30.11 in Calm     84 % 0.00 in 35.0 W/m2 CLR
08:47 67.8 °F 62.8 °F 30.11 in Calm     84 % 0.00 in 37.0 W/m2 CLR
08:52 68.2 °F 62.8 °F 30.11 in Calm     83 % 0.00 in 65.0 W/m2 CLR
08:57 68.6 °F 63.2 °F 30.11 in Calm     83 % 0.00 in 44.0 W/m2 CLR
09:02 69.1 °F 63.4 °F 30.11 in Calm     82 % 0.00 in 37.0 W/m2 CLR
09:07 69.6 °F 63.2 °F 30.11 in Calm     80 % 0.00 in 39.0 W/m2 CLR
09:12 70.3 °F 63.5 °F 30.11 in Calm     79 % 0.00 in 190.0 W/m2 CLR
09:17 71.1 °F 63.9 °F 30.11 in Calm     78 % 0.00 in 385.0 W/m2 CLR
09:22 71.8 °F 64.2 °F 30.11 in Calm     77 % 0.00 in 401.0 W/m2 CLR
09:27 72.4 °F 64.4 °F 30.11 in Calm     76 % 0.00 in 415.0 W/m2 CLR
09:32 72.6 °F 64.2 °F 30.11 in Calm     75 % 0.00 in 429.0 W/m2 CLR
09:37 72.9 °F 64.1 °F 30.11 in Calm     74 % 0.00 in 445.0 W/m2 CLR
09:42 73.5 °F 64.3 °F 30.11 in Calm     73 % 0.00 in 459.0 W/m2 CLR
09:47 73.8 °F 64.2 °F 30.11 in Calm     72 % 0.00 in 471.0 W/m2 CLR
09:52 74.5 °F 64.9 °F 30.10 in Calm     72 % 0.00 in 485.0 W/m2 CLR
09:57 74.8 °F 64.8 °F 30.11 in Calm     71 % 0.00 in 499.0 W/m2 CLR
09:59 74.9 °F 64.9 °F 30.11 in Calm     71 % 0.00 in 504.0 W/m2 CLR
10:04 75.4 °F 65.3 °F 30.10 in Calm     71 % 0.00 in 517.0 W/m2 CLR
10:09 76.0 °F 65.1 °F 30.10 in Calm     69 % 0.00 in 533.0 W/m2 CLR
10:14 76.7 °F 65.8 °F 30.10 in Calm     69 % 0.00 in 541.0 W/m2 CLR
10:20 77.0 °F 65.6 °F 30.10 in Calm     68 % 0.00 in 555.0 W/m2 CLR
10:25 77.0 °F 65.2 °F 30.10 in Calm     67 % 0.00 in 568.0 W/m2 CLR
10:30 77.8 °F 66.0 °F 30.09 in Calm     67 % 0.00 in 578.0 W/m2 CLR
10:35 78.7 °F 66.4 °F 30.09 in NE 0.6 mph 2.3 mph 66 % 0.00 in 589.0 W/m2 CLR
10:40 79.2 °F 66.4 °F 30.10 in Calm   3.5 mph 65 % 0.00 in 601.0 W/m2 CLR
10:45 79.4 °F 66.6 °F 30.10 in North 2.0 mph 4.6 mph 65 % 0.00 in 610.0 W/m2 CLR
10:50 79.7 °F 66.4 °F 30.10 in NNE 0.3 mph 4.6 mph 64 % 0.00 in 619.0 W/m2 CLR
10:55 79.9 °F 67.1 °F 30.10 in North 0.4 mph 4.6 mph 65 % 0.00 in 628.0 W/m2 CLR
11:00 80.1 °F 66.8 °F 30.09 in Calm   3.5 mph 64 % 0.00 in 640.0 W/m2 CLR
11:05 80.3 °F 67.0 °F 30.10 in NNE 0.5 mph 4.6 mph 64 % 0.00 in 647.0 W/m2 CLR
11:10 80.3 °F 66.6 °F 30.10 in Calm   4.6 mph 63 % 0.00 in 657.0 W/m2 CLR
11:15 80.9 °F 67.1 °F 30.10 in NE 0.1 mph 4.6 mph 63 % 0.00 in 664.0 W/m2 CLR
11:20 81.1 °F 67.8 °F 30.09 in Calm   3.5 mph 64 % 0.00 in 671.0 W/m2 CLR
11:25 81.4 °F 67.1 °F 30.09 in NE 1.2 mph 3.5 mph 62 % 0.00 in 680.0 W/m2 CLR
11:30 81.5 °F 67.7 °F 30.09 in North 2.4 mph 4.6 mph 63 % 0.00 in 687.0 W/m2 CLR
11:35 81.7 °F 66.9 °F 30.09 in NNE 1.8 mph 5.8 mph 61 % 0.00 in 693.0 W/m2 CLR
Air Products Campus Weather
Compliments of Weather Underground - 2.5 mb